sensor_id;sensor_type;location;lat;lon;timestamp;temperature;humidity
75010;DHT22;63564;46.840;18.336;2023-11-21T00:00:57;6.36;94.50
75010;DHT22;63564;46.840;18.336;2023-11-21T00:03:58;6.45;94.25
75010;DHT22;63564;46.840;18.336;2023-11-21T00:06:59;5.80;96.84
75010;DHT22;63564;46.840;18.336;2023-11-21T00:09:59;6.22;93.64
75010;DHT22;63564;46.840;18.336;2023-11-21T00:13:00;4.73;96.63
75010;DHT22;63564;46.840;18.336;2023-11-21T00:16:02;5.40;96.13
75010;DHT22;63564;46.840;18.336;2023-11-21T00:19:02;5.39;96.32
75010;DHT22;63564;46.840;18.336;2023-11-21T00:22:03;5.60;95.54
75010;DHT22;63564;46.840;18.336;2023-11-21T00:25:03;5.77;95.44
75010;DHT22;63564;46.840;18.336;2023-11-21T00:28:04;6.13;95.12
75010;DHT22;63564;46.840;18.336;2023-11-21T00:31:07;5.94;95.00
75010;DHT22;63564;46.840;18.336;2023-11-21T00:34:07;6.07;95.57
75010;DHT22;63564;46.840;18.336;2023-11-21T00:37:07;6.08;95.59
75010;DHT22;63564;46.840;18.336;2023-11-21T00:40:08;6.24;95.36
75010;DHT22;63564;46.840;18.336;2023-11-21T00:43:09;6.24;94.97
75010;DHT22;63564;46.840;18.336;2023-11-21T00:46:09;5.98;95.51
75010;DHT22;63564;46.840;18.336;2023-11-21T00:49:10;6.26;95.40
75010;DHT22;63564;46.840;18.336;2023-11-21T00:52:10;6.17;95.16
75010;DHT22;63564;46.840;18.336;2023-11-21T00:55:11;6.03;95.72
75010;DHT22;63564;46.840;18.336;2023-11-21T00:58:12;6.24;94.85
75010;DHT22;63564;46.840;18.336;2023-11-21T01:01:12;6.22;94.97
75010;DHT22;63564;46.840;18.336;2023-11-21T01:04:12;6.18;95.18
75010;DHT22;63564;46.840;18.336;2023-11-21T01:07:13;6.26;95.18
75010;DHT22;63564;46.840;18.336;2023-11-21T01:10:14;6.17;95.48
75010;DHT22;63564;46.840;18.336;2023-11-21T01:13:14;6.04;95.73
75010;DHT22;63564;46.840;18.336;2023-11-21T01:16:15;6.08;95.64
75010;DHT22;63564;46.840;18.336;2023-11-21T01:19:15;6.10;95.57
75010;DHT22;63564;46.840;18.336;2023-11-21T01:22:16;6.10;95.38
75010;DHT22;63564;46.840;18.336;2023-11-21T01:25:16;6.18;95.14
75010;DHT22;63564;46.840;18.336;2023-11-21T01:28:17;6.17;95.33
75010;DHT22;63564;46.840;18.336;2023-11-21T01:31:17;6.29;95.30
75010;DHT22;63564;46.840;18.336;2023-11-21T01:34:18;6.41;95.02
75010;DHT22;63564;46.840;18.336;2023-11-21T01:37:18;6.69;93.45
75010;DHT22;63564;46.840;18.336;2023-11-21T01:40:19;6.13;95.78
75010;DHT22;63564;46.840;18.336;2023-11-21T01:43:19;5.53;97.41
75010;DHT22;63564;46.840;18.336;2023-11-21T01:46:20;5.94;95.79
75010;DHT22;63564;46.840;18.336;2023-11-21T01:49:21;5.67;96.32
75010;DHT22;63564;46.840;18.336;2023-11-21T01:52:22;5.65;97.09
75010;DHT22;63564;46.840;18.336;2023-11-21T01:55:22;5.69;96.26
75010;DHT22;63564;46.840;18.336;2023-11-21T01:58:23;5.66;96.75
75010;DHT22;63564;46.840;18.336;2023-11-21T02:01:23;5.74;96.70
75010;DHT22;63564;46.840;18.336;2023-11-21T02:04:26;5.63;96.62
75010;DHT22;63564;46.840;18.336;2023-11-21T02:07:27;5.35;97.30
75010;DHT22;63564;46.840;18.336;2023-11-21T02:10:27;5.36;97.22
75010;DHT22;63564;46.840;18.336;2023-11-21T02:13:29;5.32;97.30
75010;DHT22;63564;46.840;18.336;2023-11-21T02:16:29;5.38;97.38
75010;DHT22;63564;46.840;18.336;2023-11-21T02:19:31;5.35;96.88
75010;DHT22;63564;46.840;18.336;2023-11-21T02:22:35;5.40;97.30
75010;DHT22;63564;46.840;18.336;2023-11-21T02:25:38;5.69;97.62
75010;DHT22;63564;46.840;18.336;2023-11-21T02:28:38;5.56;97.21
75010;DHT22;63564;46.840;18.336;2023-11-21T02:31:39;5.58;97.32
75010;DHT22;63564;46.840;18.336;2023-11-21T02:34:48;5.85;96.93
75010;DHT22;63564;46.840;18.336;2023-11-21T02:37:49;6.06;96.90
75010;DHT22;63564;46.840;18.336;2023-11-21T02:40:50;5.94;96.34
75010;DHT22;63564;46.840;18.336;2023-11-21T02:43:50;5.93;96.26
75010;DHT22;63564;46.840;18.336;2023-11-21T02:46:50;6.00;96.01
75010;DHT22;63564;46.840;18.336;2023-11-21T02:49:51;5.96;96.15
75010;DHT22;63564;46.840;18.336;2023-11-21T02:52:52;6.10;96.51
75010;DHT22;63564;46.840;18.336;2023-11-21T02:55:52;6.31;96.20
75010;DHT22;63564;46.840;18.336;2023-11-21T02:58:55;6.41;94.70
75010;DHT22;63564;46.840;18.336;2023-11-21T03:01:56;5.98;96.30
75010;DHT22;63564;46.840;18.336;2023-11-21T03:04:57;6.14;96.24
75010;DHT22;63564;46.840;18.336;2023-11-21T03:07:57;6.07;96.47
75010;DHT22;63564;46.840;18.336;2023-11-21T03:10:58;6.32;95.60
75010;DHT22;63564;46.840;18.336;2023-11-21T03:13:58;6.63;95.03
75010;DHT22;63564;46.840;18.336;2023-11-21T03:16:59;6.32;95.65
75010;DHT22;63564;46.840;18.336;2023-11-21T03:20:00;6.35;95.96
75010;DHT22;63564;46.840;18.336;2023-11-21T03:23:00;6.24;96.56
75010;DHT22;63564;46.840;18.336;2023-11-21T03:26:01;6.42;96.10
75010;DHT22;63564;46.840;18.336;2023-11-21T03:29:01;6.53;96.21
75010;DHT22;63564;46.840;18.336;2023-11-21T03:32:02;6.46;96.21
75010;DHT22;63564;46.840;18.336;2023-11-21T03:35:03;6.42;95.61
75010;DHT22;63564;46.840;18.336;2023-11-21T03:38:03;6.59;95.57
75010;DHT22;63564;46.840;18.336;2023-11-21T03:41:05;6.91;94.89
75010;DHT22;63564;46.840;18.336;2023-11-21T03:44:05;6.97;93.84
75010;DHT22;63564;46.840;18.336;2023-11-21T03:47:05;7.01;93.75
75010;DHT22;63564;46.840;18.336;2023-11-21T03:50:06;7.04;93.66
75010;DHT22;63564;46.840;18.336;2023-11-21T03:53:07;7.34;92.95
75010;DHT22;63564;46.840;18.336;2023-11-21T03:56:07;6.97;94.48
75010;DHT22;63564;46.840;18.336;2023-11-21T03:59:08;6.61;95.23
75010;DHT22;63564;46.840;18.336;2023-11-21T04:02:09;6.86;94.70
75010;DHT22;63564;46.840;18.336;2023-11-21T04:05:09;6.87;94.10
75010;DHT22;63564;46.840;18.336;2023-11-21T04:08:09;6.83;94.71
75010;DHT22;63564;46.840;18.336;2023-11-21T04:11:10;6.66;95.84
75010;DHT22;63564;46.840;18.336;2023-11-21T04:14:13;6.68;95.59
75010;DHT22;63564;46.840;18.336;2023-11-21T04:17:14;6.97;94.44
75010;DHT22;63564;46.840;18.336;2023-11-21T04:20:17;6.86;94.90
75010;DHT22;63564;46.840;18.336;2023-11-21T04:23:18;7.03;94.11
75010;DHT22;63564;46.840;18.336;2023-11-21T04:26:18;7.12;94.16
75010;DHT22;63564;46.840;18.336;2023-11-21T04:29:18;6.97;94.70
75010;DHT22;63564;46.840;18.336;2023-11-21T04:32:19;6.91;94.86
75010;DHT22;63564;46.840;18.336;2023-11-21T04:35:19;6.97;94.33
75010;DHT22;63564;46.840;18.336;2023-11-21T04:38:20;6.99;95.29
75010;DHT22;63564;46.840;18.336;2023-11-21T04:41:20;6.84;95.93
75010;DHT22;63564;46.840;18.336;2023-11-21T04:44:21;7.00;93.44
75010;DHT22;63564;46.840;18.336;2023-11-21T04:47:21;6.26;96.22
75010;DHT22;63564;46.840;18.336;2023-11-21T04:50:22;5.96;96.95
75010;DHT22;63564;46.840;18.336;2023-11-21T04:53:22;6.22;97.17
75010;DHT22;63564;46.840;18.336;2023-11-21T04:56:23;6.44;96.19
75010;DHT22;63564;46.840;18.336;2023-11-21T04:59:23;6.73;94.80
75010;DHT22;63564;46.840;18.336;2023-11-21T05:02:25;6.65;94.49
75010;DHT22;63564;46.840;18.336;2023-11-21T05:05:25;6.72;94.37
75010;DHT22;63564;46.840;18.336;2023-11-21T05:08:25;6.91;93.80
75010;DHT22;63564;46.840;18.336;2023-11-21T05:11:27;6.89;93.78
75010;DHT22;63564;46.840;18.336;2023-11-21T05:14:27;7.10;93.19
75010;DHT22;63564;46.840;18.336;2023-11-21T05:17:28;7.30;92.96
75010;DHT22;63564;46.840;18.336;2023-11-21T05:20:28;7.38;92.64
75010;DHT22;63564;46.840;18.336;2023-11-21T05:23:28;7.36;92.76
75010;DHT22;63564;46.840;18.336;2023-11-21T05:26:29;7.34;93.04
75010;DHT22;63564;46.840;18.336;2023-11-21T05:29:29;7.49;92.70
75010;DHT22;63564;46.840;18.336;2023-11-21T05:32:29;7.56;92.99
75010;DHT22;63564;46.840;18.336;2023-11-21T05:35:30;7.35;94.15
75010;DHT22;63564;46.840;18.336;2023-11-21T05:38:30;7.38;94.41
75010;DHT22;63564;46.840;18.336;2023-11-21T05:41:30;7.52;94.05
75010;DHT22;63564;46.840;18.336;2023-11-21T05:44:31;7.65;93.67
75010;DHT22;63564;46.840;18.336;2023-11-21T05:47:31;7.80;93.15
75010;DHT22;63564;46.840;18.336;2023-11-21T05:50:31;7.90;92.70
75010;DHT22;63564;46.840;18.336;2023-11-21T05:53:32;7.98;92.74
75010;DHT22;63564;46.840;18.336;2023-11-21T05:56:33;8.03;92.75
75010;DHT22;63564;46.840;18.336;2023-11-21T05:59:33;8.06;93.04
75010;DHT22;63564;46.840;18.336;2023-11-21T06:02:33;8.18;92.85
75010;DHT22;63564;46.840;18.336;2023-11-21T06:05:34;8.23;92.68
75010;DHT22;63564;46.840;18.336;2023-11-21T06:08:34;8.11;92.93
75010;DHT22;63564;46.840;18.336;2023-11-21T06:11:35;7.61;95.10
75010;DHT22;63564;46.840;18.336;2023-11-21T06:14:35;7.80;94.97
75010;DHT22;63564;46.840;18.336;2023-11-21T06:17:36;7.87;95.12
75010;DHT22;63564;46.840;18.336;2023-11-21T06:20:36;7.65;95.78
75010;DHT22;63564;46.840;18.336;2023-11-21T06:23:37;7.36;97.22
75010;DHT22;63564;46.840;18.336;2023-11-21T06:26:38;7.72;95.53
75010;DHT22;63564;46.840;18.336;2023-11-21T06:29:38;8.28;94.17
75010;DHT22;63564;46.840;18.336;2023-11-21T06:32:39;7.77;95.76
75010;DHT22;63564;46.840;18.336;2023-11-21T06:35:40;7.85;95.65
75010;DHT22;63564;46.840;18.336;2023-11-21T06:38:40;8.10;94.44
75010;DHT22;63564;46.840;18.336;2023-11-21T06:41:40;7.58;96.27
75010;DHT22;63564;46.840;18.336;2023-11-21T06:44:41;7.51;96.72
75010;DHT22;63564;46.840;18.336;2023-11-21T06:47:41;7.55;96.95
75010;DHT22;63564;46.840;18.336;2023-11-21T06:50:42;7.61;97.33
75010;DHT22;63564;46.840;18.336;2023-11-21T06:53:42;7.69;96.76
75010;DHT22;63564;46.840;18.336;2023-11-21T06:56:42;7.75;96.81
75010;DHT22;63564;46.840;18.336;2023-11-21T06:59:43;7.98;96.32
75010;DHT22;63564;46.840;18.336;2023-11-21T07:02:44;7.96;95.68
75010;DHT22;63564;46.840;18.336;2023-11-21T07:05:45;8.11;95.39
75010;DHT22;63564;46.840;18.336;2023-11-21T07:08:45;8.25;94.54
75010;DHT22;63564;46.840;18.336;2023-11-21T07:11:46;7.98;95.73
75010;DHT22;63564;46.840;18.336;2023-11-21T07:14:48;8.01;96.38
75010;DHT22;63564;46.840;18.336;2023-11-21T07:17:49;8.18;95.63
75010;DHT22;63564;46.840;18.336;2023-11-21T07:20:49;8.17;96.25
75010;DHT22;63564;46.840;18.336;2023-11-21T07:23:50;8.20;95.75
75010;DHT22;63564;46.840;18.336;2023-11-21T07:26:50;8.04;96.56
75010;DHT22;63564;46.840;18.336;2023-11-21T07:29:50;8.17;95.99
75010;DHT22;63564;46.840;18.336;2023-11-21T07:32:51;8.20;96.22
75010;DHT22;63564;46.840;18.336;2023-11-21T07:35:51;8.18;96.83
75010;DHT22;63564;46.840;18.336;2023-11-21T07:38:52;8.38;95.98
75010;DHT22;63564;46.840;18.336;2023-11-21T07:41:52;8.51;96.88
75010;DHT22;63564;46.840;18.336;2023-11-21T07:44:52;8.54;96.24
75010;DHT22;63564;46.840;18.336;2023-11-21T07:47:53;8.34;95.92
75010;DHT22;63564;46.840;18.336;2023-11-21T07:50:54;8.24;97.24
75010;DHT22;63564;46.840;18.336;2023-11-21T07:53:55;8.61;98.66
75010;DHT22;63564;46.840;18.336;2023-11-21T07:56:55;8.52;96.47
75010;DHT22;63564;46.840;18.336;2023-11-21T07:59:55;8.41;95.42
75010;DHT22;63564;46.840;18.336;2023-11-21T08:02:57;8.48;96.31
75010;DHT22;63564;46.840;18.336;2023-11-21T08:06:00;8.54;95.59
75010;DHT22;63564;46.840;18.336;2023-11-21T08:09:03;8.38;96.05
75010;DHT22;63564;46.840;18.336;2023-11-21T08:12:04;8.25;96.71
75010;DHT22;63564;46.840;18.336;2023-11-21T08:15:09;8.40;96.99
75010;DHT22;63564;46.840;18.336;2023-11-21T08:18:11;8.31;96.54
75010;DHT22;63564;46.840;18.336;2023-11-21T08:21:18;8.15;98.35
75010;DHT22;63564;46.840;18.336;2023-11-21T08:24:19;7.87;99.50
75010;DHT22;63564;46.840;18.336;2023-11-21T08:27:19;7.96;99.39
75010;DHT22;63564;46.840;18.336;2023-11-21T08:30:19;8.07;98.22
75010;DHT22;63564;46.840;18.336;2023-11-21T08:33:22;8.07;98.65
75010;DHT22;63564;46.840;18.336;2023-11-21T08:36:23;8.34;98.58
75010;DHT22;63564;46.840;18.336;2023-11-21T08:39:24;8.38;97.60
75010;DHT22;63564;46.840;18.336;2023-11-21T08:42:25;8.38;98.09
75010;DHT22;63564;46.840;18.336;2023-11-21T08:45:25;8.34;98.22
75010;DHT22;63564;46.840;18.336;2023-11-21T08:48:27;8.42;97.72
75010;DHT22;63564;46.840;18.336;2023-11-21T08:51:29;8.51;96.92
75010;DHT22;63564;46.840;18.336;2023-11-21T08:54:30;8.59;97.27
75010;DHT22;63564;46.840;18.336;2023-11-21T08:57:31;8.62;98.28
75010;DHT22;63564;46.840;18.336;2023-11-21T09:00:33;8.62;98.14
75010;DHT22;63564;46.840;18.336;2023-11-21T09:03:34;8.51;97.11
75010;DHT22;63564;46.840;18.336;2023-11-21T09:06:34;8.11;98.37
75010;DHT22;63564;46.840;18.336;2023-11-21T09:09:35;7.91;98.97
75010;DHT22;63564;46.840;18.336;2023-11-21T09:12:36;8.68;99.99
75010;DHT22;63564;46.840;18.336;2023-11-21T09:15:38;8.89;99.99
75010;DHT22;63564;46.840;18.336;2023-11-21T09:18:38;9.92;99.99
75010;DHT22;63564;46.840;18.336;2023-11-21T09:21:39;9.20;99.35
75010;DHT22;63564;46.840;18.336;2023-11-21T09:24:40;9.57;99.99
75010;DHT22;63564;46.840;18.336;2023-11-21T09:27:40;9.07;99.99
75010;DHT22;63564;46.840;18.336;2023-11-21T09:30:41;8.65;98.37
75010;DHT22;63564;46.840;18.336;2023-11-21T09:33:42;8.56;98.77
75010;DHT22;63564;46.840;18.336;2023-11-21T09:36:46;8.40;98.65
75010;DHT22;63564;46.840;18.336;2023-11-21T09:39:47;8.62;99.30
75010;DHT22;63564;46.840;18.336;2023-11-21T09:42:57;8.89;98.94
75010;DHT22;63564;46.840;18.336;2023-11-21T09:46:00;8.87;99.08
75010;DHT22;63564;46.840;18.336;2023-11-21T09:49:04;8.77;98.24
75010;DHT22;63564;46.840;18.336;2023-11-21T09:52:08;8.59;98.36
75010;DHT22;63564;46.840;18.336;2023-11-21T09:55:09;8.33;98.70
75010;DHT22;63564;46.840;18.336;2023-11-21T09:58:14;8.48;98.60
75010;DHT22;63564;46.840;18.336;2023-11-21T10:01:16;8.54;98.24
75010;DHT22;63564;46.840;18.336;2023-11-21T10:04:17;8.63;98.38
75010;DHT22;63564;46.840;18.336;2023-11-21T10:07:19;8.46;98.65
75010;DHT22;63564;46.840;18.336;2023-11-21T10:10:22;8.42;98.47
75010;DHT22;63564;46.840;18.336;2023-11-21T10:13:24;8.27;98.89
75010;DHT22;63564;46.840;18.336;2023-11-21T10:16:26;8.46;99.02
75010;DHT22;63564;46.840;18.336;2023-11-21T10:19:26;8.42;98.74
75010;DHT22;63564;46.840;18.336;2023-11-21T10:22:27;8.30;99.14
75010;DHT22;63564;46.840;18.336;2023-11-21T10:25:29;8.33;99.41
75010;DHT22;63564;46.840;18.336;2023-11-21T10:28:29;8.27;99.10
75010;DHT22;63564;46.840;18.336;2023-11-21T10:31:31;8.13;99.75
75010;DHT22;63564;46.840;18.336;2023-11-21T10:34:32;8.08;99.99
75010;DHT22;63564;46.840;18.336;2023-11-21T10:37:33;8.25;99.99
75010;DHT22;63564;46.840;18.336;2023-11-21T10:40:34;8.44;99.61
75010;DHT22;63564;46.840;18.336;2023-11-21T10:43:34;8.33;99.30
75010;DHT22;63564;46.840;18.336;2023-11-21T10:46:34;8.33;99.43
75010;DHT22;63564;46.840;18.336;2023-11-21T10:49:36;8.69;99.99
75010;DHT22;63564;46.840;18.336;2023-11-21T10:52:39;8.65;99.20
75010;DHT22;63564;46.840;18.336;2023-11-21T10:55:40;8.69;99.33
75010;DHT22;63564;46.840;18.336;2023-11-21T10:58:40;8.59;97.97
75010;DHT22;63564;46.840;18.336;2023-11-21T11:01:47;8.35;98.73
75010;DHT22;63564;46.840;18.336;2023-11-21T11:04:52;8.34;99.41
75010;DHT22;63564;46.840;18.336;2023-11-21T11:08:11;8.49;99.39
75010;DHT22;63564;46.840;18.336;2023-11-21T11:11:12;8.82;98.46
75010;DHT22;63564;46.840;18.336;2023-11-21T11:14:14;8.62;98.60
75010;DHT22;63564;46.840;18.336;2023-11-21T11:17:15;8.65;98.65
75010;DHT22;63564;46.840;18.336;2023-11-21T11:20:17;8.55;98.76
75010;DHT22;63564;46.840;18.336;2023-11-21T11:31:05;8.68;99.09
75010;DHT22;63564;46.840;18.336;2023-11-21T11:37:20;8.73;98.81
75010;DHT22;63564;46.840;18.336;2023-11-21T11:40:21;8.63;98.63
75010;DHT22;63564;46.840;18.336;2023-11-21T11:43:26;8.55;99.36
75010;DHT22;63564;46.840;18.336;2023-11-21T11:46:43;8.73;99.00
75010;DHT22;63564;46.840;18.336;2023-11-21T11:53:26;8.86;98.60
75010;DHT22;63564;46.840;18.336;2023-11-21T11:56:29;9.01;97.74
75010;DHT22;63564;46.840;18.336;2023-11-21T12:00:06;8.77;96.82
75010;DHT22;63564;46.840;18.336;2023-11-21T12:03:10;8.66;97.09
75010;DHT22;63564;46.840;18.336;2023-11-21T12:06:10;8.82;97.68
75010;DHT22;63564;46.840;18.336;2023-11-21T12:09:21;9.00;97.75
75010;DHT22;63564;46.840;18.336;2023-11-21T12:12:22;8.96;97.62
75010;DHT22;63564;46.840;18.336;2023-11-21T12:15:23;9.00;97.00
75010;DHT22;63564;46.840;18.336;2023-11-21T12:18:25;8.80;97.85
75010;DHT22;63564;46.840;18.336;2023-11-21T12:21:27;8.75;97.89
75010;DHT22;63564;46.840;18.336;2023-11-21T12:24:28;8.65;97.93
75010;DHT22;63564;46.840;18.336;2023-11-21T12:27:29;8.86;99.09
75010;DHT22;63564;46.840;18.336;2023-11-21T12:30:31;9.00;98.51
75010;DHT22;63564;46.840;18.336;2023-11-21T12:33:35;8.76;97.82
75010;DHT22;63564;46.840;18.336;2023-11-21T12:36:35;8.65;98.38
75010;DHT22;63564;46.840;18.336;2023-11-21T12:39:36;8.49;98.19
75010;DHT22;63564;46.840;18.336;2023-11-21T12:42:37;8.63;97.48
75010;DHT22;63564;46.840;18.336;2023-11-21T12:45:37;8.61;98.22
75010;DHT22;63564;46.840;18.336;2023-11-21T12:48:38;8.79;97.65
75010;DHT22;63564;46.840;18.336;2023-11-21T12:51:46;8.76;97.80
75010;DHT22;63564;46.840;18.336;2023-11-21T12:54:46;8.71;99.26
75010;DHT22;63564;46.840;18.336;2023-11-21T12:57:51;8.99;98.89
75010;DHT22;63564;46.840;18.336;2023-11-21T13:00:52;8.99;98.38
75010;DHT22;63564;46.840;18.336;2023-11-21T13:03:54;8.86;97.89
75010;DHT22;63564;46.840;18.336;2023-11-21T13:06:54;8.82;98.64
75010;DHT22;63564;46.840;18.336;2023-11-21T13:09:56;8.94;98.09
75010;DHT22;63564;46.840;18.336;2023-11-21T13:12:58;9.10;96.34
75010;DHT22;63564;46.840;18.336;2023-11-21T13:16:02;8.99;97.42
75010;DHT22;63564;46.840;18.336;2023-11-21T13:19:06;9.10;97.59
75010;DHT22;63564;46.840;18.336;2023-11-21T13:22:06;8.69;98.15
75010;DHT22;63564;46.840;18.336;2023-11-21T13:25:07;8.71;98.21
75010;DHT22;63564;46.840;18.336;2023-11-21T13:28:08;8.54;98.07
75010;DHT22;63564;46.840;18.336;2023-11-21T13:31:11;8.62;98.90
75010;DHT22;63564;46.840;18.336;2023-11-21T13:34:22;8.51;98.52
75010;DHT22;63564;46.840;18.336;2023-11-21T13:37:25;8.65;98.80
75010;DHT22;63564;46.840;18.336;2023-11-21T13:40:28;8.76;98.88
75010;DHT22;63564;46.840;18.336;2023-11-21T13:43:28;8.62;98.84
75010;DHT22;63564;46.840;18.336;2023-11-21T13:46:36;8.54;98.32
75010;DHT22;63564;46.840;18.336;2023-11-21T13:49:37;8.61;98.96
75010;DHT22;63564;46.840;18.336;2023-11-21T13:52:41;8.63;98.86
75010;DHT22;63564;46.840;18.336;2023-11-21T13:55:41;8.80;98.88
75010;DHT22;63564;46.840;18.336;2023-11-21T13:58:41;8.51;98.74
75010;DHT22;63564;46.840;18.336;2023-11-21T14:01:50;8.42;98.69
75010;DHT22;63564;46.840;18.336;2023-11-21T14:04:59;8.41;98.47
75010;DHT22;63564;46.840;18.336;2023-11-21T14:08:03;8.42;98.95
75010;DHT22;63564;46.840;18.336;2023-11-21T14:11:05;8.45;99.07
75010;DHT22;63564;46.840;18.336;2023-11-21T14:14:06;8.59;99.07
75010;DHT22;63564;46.840;18.336;2023-11-21T14:17:07;8.58;99.24
75010;DHT22;63564;46.840;18.336;2023-11-21T14:20:08;8.48;99.65
75010;DHT22;63564;46.840;18.336;2023-11-21T14:23:15;8.52;99.48
75010;DHT22;63564;46.840;18.336;2023-11-21T14:26:16;8.42;99.67
75010;DHT22;63564;46.840;18.336;2023-11-21T14:29:18;8.63;99.82
75010;DHT22;63564;46.840;18.336;2023-11-21T14:32:23;8.77;99.94
75010;DHT22;63564;46.840;18.336;2023-11-21T14:35:26;8.68;99.62
75010;DHT22;63564;46.840;18.336;2023-11-21T14:38:26;8.49;99.78
75010;DHT22;63564;46.840;18.336;2023-11-21T14:41:29;8.58;99.23
75010;DHT22;63564;46.840;18.336;2023-11-21T14:44:29;8.41;99.99
75010;DHT22;63564;46.840;18.336;2023-11-21T14:47:35;8.46;99.99
75010;DHT22;63564;46.840;18.336;2023-11-21T14:50:41;8.34;99.89
75010;DHT22;63564;46.840;18.336;2023-11-21T14:53:42;8.42;99.99
75010;DHT22;63564;46.840;18.336;2023-11-21T14:56:43;8.76;98.57
75010;DHT22;63564;46.840;18.336;2023-11-21T14:59:47;8.27;99.99
75010;DHT22;63564;46.840;18.336;2023-11-21T15:02:58;8.48;99.99
75010;DHT22;63564;46.840;18.336;2023-11-21T15:06:02;8.45;99.99
75010;DHT22;63564;46.840;18.336;2023-11-21T15:09:23;8.42;99.99
75010;DHT22;63564;46.840;18.336;2023-11-21T15:12:35;8.23;99.99
75010;DHT22;63564;46.840;18.336;2023-11-21T15:15:38;8.27;99.99
75010;DHT22;63564;46.840;18.336;2023-11-21T15:18:39;8.38;99.99
75010;DHT22;63564;46.840;18.336;2023-11-21T15:21:40;8.49;99.99
75010;DHT22;63564;46.840;18.336;2023-11-21T15:24:40;8.63;99.63
75010;DHT22;63564;46.840;18.336;2023-11-21T15:27:42;8.69;99.13
75010;DHT22;63564;46.840;18.336;2023-11-21T15:30:43;8.66;99.18
75010;DHT22;63564;46.840;18.336;2023-11-21T15:33:46;8.79;98.47
75010;DHT22;63564;46.840;18.336;2023-11-21T15:36:47;8.77;98.33
75010;DHT22;63564;46.840;18.336;2023-11-21T15:39:50;8.54;99.25
75010;DHT22;63564;46.840;18.336;2023-11-21T15:42:51;8.48;99.50
75010;DHT22;63564;46.840;18.336;2023-11-21T15:45:51;8.41;99.91
75010;DHT22;63564;46.840;18.336;2023-11-21T15:48:52;8.31;99.99
75010;DHT22;63564;46.840;18.336;2023-11-21T15:51:54;8.37;99.99
75010;DHT22;63564;46.840;18.336;2023-11-21T15:54:57;8.33;99.99
75010;DHT22;63564;46.840;18.336;2023-11-21T15:57:58;8.46;99.99
75010;DHT22;63564;46.840;18.336;2023-11-21T16:00:59;8.40;99.54
75010;DHT22;63564;46.840;18.336;2023-11-21T16:03:59;8.49;99.38
75010;DHT22;63564;46.840;18.336;2023-11-21T16:07:00;8.65;99.02
75010;DHT22;63564;46.840;18.336;2023-11-21T16:10:02;8.51;99.37
75010;DHT22;63564;46.840;18.336;2023-11-21T16:13:04;8.41;99.78
75010;DHT22;63564;46.840;18.336;2023-11-21T16:16:04;8.37;99.99
75010;DHT22;63564;46.840;18.336;2023-11-21T16:19:05;8.35;99.99
75010;DHT22;63564;46.840;18.336;2023-11-21T16:22:05;8.37;99.99
75010;DHT22;63564;46.840;18.336;2023-11-21T16:25:07;8.30;99.99
75010;DHT22;63564;46.840;18.336;2023-11-21T16:28:12;8.06;99.99
75010;DHT22;63564;46.840;18.336;2023-11-21T16:31:21;8.13;99.99
75010;DHT22;63564;46.840;18.336;2023-11-21T16:34:22;8.14;99.99
75010;DHT22;63564;46.840;18.336;2023-11-21T16:37:22;8.13;99.99
75010;DHT22;63564;46.840;18.336;2023-11-21T16:40:23;8.21;99.99
75010;DHT22;63564;46.840;18.336;2023-11-21T16:43:23;8.27;99.99
75010;DHT22;63564;46.840;18.336;2023-11-21T16:46:23;8.24;99.68
75010;DHT22;63564;46.840;18.336;2023-11-21T16:49:24;8.23;99.66
75010;DHT22;63564;46.840;18.336;2023-11-21T16:52:26;8.44;98.81
75010;DHT22;63564;46.840;18.336;2023-11-21T16:55:27;8.27;98.62
75010;DHT22;63564;46.840;18.336;2023-11-21T16:58:27;8.27;99.49
75010;DHT22;63564;46.840;18.336;2023-11-21T17:01:29;8.30;99.33
75010;DHT22;63564;46.840;18.336;2023-11-21T17:04:29;8.15;99.09
75010;DHT22;63564;46.840;18.336;2023-11-21T17:07:30;8.13;99.63
75010;DHT22;63564;46.840;18.336;2023-11-21T17:10:30;8.23;99.03
75010;DHT22;63564;46.840;18.336;2023-11-21T17:13:30;8.18;98.31
75010;DHT22;63564;46.840;18.336;2023-11-21T17:16:31;8.07;99.00
75010;DHT22;63564;46.840;18.336;2023-11-21T17:19:32;8.10;99.21
75010;DHT22;63564;46.840;18.336;2023-11-21T17:22:34;7.93;99.37
75010;DHT22;63564;46.840;18.336;2023-11-21T17:25:37;7.83;99.95
75010;DHT22;63564;46.840;18.336;2023-11-21T17:28:37;7.94;99.63
75010;DHT22;63564;46.840;18.336;2023-11-21T17:31:38;8.00;99.09
75010;DHT22;63564;46.840;18.336;2023-11-21T17:34:38;7.93;98.68
75010;DHT22;63564;46.840;18.336;2023-11-21T17:37:39;8.06;97.86
75010;DHT22;63564;46.840;18.336;2023-11-21T17:40:40;7.90;98.01
75010;DHT22;63564;46.840;18.336;2023-11-21T17:43:41;7.91;98.11
75010;DHT22;63564;46.840;18.336;2023-11-21T17:46:42;7.75;98.44
75010;DHT22;63564;46.840;18.336;2023-11-21T17:49:42;7.85;98.17
75010;DHT22;63564;46.840;18.336;2023-11-21T17:52:43;7.91;97.97
75010;DHT22;63564;46.840;18.336;2023-11-21T17:55:44;7.91;97.68
75010;DHT22;63564;46.840;18.336;2023-11-21T17:58:45;7.72;98.38
75010;DHT22;63564;46.840;18.336;2023-11-21T18:01:46;7.63;98.46
75010;DHT22;63564;46.840;18.336;2023-11-21T18:04:47;7.65;97.62
75010;DHT22;63564;46.840;18.336;2023-11-21T18:07:47;7.61;97.73
75010;DHT22;63564;46.840;18.336;2023-11-21T18:10:47;7.61;97.55
75010;DHT22;63564;46.840;18.336;2023-11-21T18:13:48;7.54;97.90
75010;DHT22;63564;46.840;18.336;2023-11-21T18:16:49;7.45;98.12
75010;DHT22;63564;46.840;18.336;2023-11-21T18:19:49;7.41;98.39
75010;DHT22;63564;46.840;18.336;2023-11-21T18:22:54;7.47;97.82
75010;DHT22;63564;46.840;18.336;2023-11-21T18:25:55;7.56;97.43
75010;DHT22;63564;46.840;18.336;2023-11-21T18:28:55;7.44;97.50
75010;DHT22;63564;46.840;18.336;2023-11-21T18:31:56;7.39;97.81
75010;DHT22;63564;46.840;18.336;2023-11-21T18:34:56;7.48;98.05
75010;DHT22;63564;46.840;18.336;2023-11-21T18:37:57;7.47;98.19
75010;DHT22;63564;46.840;18.336;2023-11-21T18:40:57;7.44;98.17
75010;DHT22;63564;46.840;18.336;2023-11-21T18:43:57;7.32;97.61
75010;DHT22;63564;46.840;18.336;2023-11-21T18:46:58;7.32;97.43
75010;DHT22;63564;46.840;18.336;2023-11-21T18:49:58;7.27;97.60
75010;DHT22;63564;46.840;18.336;2023-11-21T18:52:58;7.30;97.10
75010;DHT22;63564;46.840;18.336;2023-11-21T18:55:59;7.38;96.83
75010;DHT22;63564;46.840;18.336;2023-11-21T18:58:59;7.21;97.25
75010;DHT22;63564;46.840;18.336;2023-11-21T19:02:00;7.24;97.08
75010;DHT22;63564;46.840;18.336;2023-11-21T19:05:08;7.25;97.07
75010;DHT22;63564;46.840;18.336;2023-11-21T19:08:08;7.12;97.54
75010;DHT22;63564;46.840;18.336;2023-11-21T19:11:10;7.27;96.33
75010;DHT22;63564;46.840;18.336;2023-11-21T19:14:11;7.28;96.67
75010;DHT22;63564;46.840;18.336;2023-11-21T19:17:12;7.20;96.83
75010;DHT22;63564;46.840;18.336;2023-11-21T19:20:13;7.24;96.39